Time;durP1;ratioP1;P1;durP2;ratioP2;P2;SDS_P1;SDS_P2;PMS_P1;PMS_P2;Temp;Humidity;BMP_temperature;BMP_pressure;BME280_temperature;BME280_humidity;BME280_pressure;Samples;Min_cycle;Max_cycle;Signal;HPM_P1;HPM_P2
2023/02/06 00:01:45;;;;;;;11.10;4.07;;;0.30;99.90;;;-1.37;90.43;103434.28;4984300;28;20129;-75
2023/02/06 00:04:11;;;;;;;8.05;4.22;;;0.40;99.90;;;-1.37;90.48;103417.91;4952180;28;20113;-75
2023/02/06 00:06:37;;;;;;;11.18;4.70;;;0.40;99.90;;;-1.31;90.39;103426.81;4964002;28;20041;-74
2023/02/06 00:09:04;;;;;;;10.07;4.40;;;0.40;99.90;;;-1.32;90.54;103424.16;4974231;28;20096;-74
2023/02/06 00:11:30;;;;;;;9.25;4.70;;;0.50;99.90;;;-1.33;90.80;103412.94;4987030;28;20121;-74
2023/02/06 00:13:56;;;;;;;9.40;4.57;;;0.40;99.90;;;-1.30;90.93;103414.78;4961855;28;21792;-75
2023/02/06 00:16:26;;;;;;;8.02;4.75;;;0.50;99.90;;;-1.27;91.59;103417.53;4991692;28;20115;-75
2023/02/06 00:18:53;;;;;;;14.38;5.15;;;0.50;99.90;;;-1.27;91.31;103422.69;4981923;28;20049;-75
2023/02/06 00:21:24;;;;;;;11.63;5.10;;;0.50;99.90;;;-1.27;91.78;103407.19;4978708;28;20032;-75
2023/02/06 00:23:55;;;;;;;14.00;5.50;;;0.50;99.90;;;-1.24;91.96;103409.88;4981232;28;20558;-75
2023/02/06 00:26:22;;;;;;;12.98;5.40;;;0.50;99.90;;;-1.21;91.90;103414.31;4989213;28;20096;-75
2023/02/06 00:28:48;;;;;;;11.88;5.07;;;0.50;99.90;;;-1.20;91.99;103409.22;4966925;28;20697;-75
2023/02/06 00:31:14;;;;;;;12.20;5.57;;;0.50;99.90;;;-1.21;91.67;103412.59;4988679;28;20048;-74
2023/02/06 00:33:42;;;;;;;16.88;5.70;;;0.50;99.90;;;-1.19;92.22;103408.38;4964856;28;20030;-75
2023/02/06 00:36:08;;;;;;;10.23;5.40;;;0.50;99.90;;;-1.19;92.62;103403.22;4985195;28;20536;-75
2023/02/06 00:38:36;;;;;;;13.55;6.20;;;0.50;99.90;;;-1.18;92.64;103405.00;4986137;28;20068;-75
2023/02/06 00:41:02;;;;;;;19.38;6.10;;;0.60;99.90;;;-1.18;92.78;103412.75;4987822;28;20038;-75
2023/02/06 00:43:28;;;;;;;14.82;6.10;;;0.50;99.90;;;-1.17;92.87;103413.63;4963904;28;20034;-75
2023/02/06 00:45:56;;;;;;;12.60;6.40;;;0.60;99.90;;;-1.16;93.36;103420.59;4973220;28;20543;-75
2023/02/06 00:48:23;;;;;;;15.68;6.40;;;0.60;99.90;;;-1.14;93.79;103409.50;4978269;28;20030;-75
2023/02/06 00:50:53;;;;;;;12.18;6.22;;;0.60;99.90;;;-1.14;93.81;103404.31;4988023;28;20042;-75
2023/02/06 00:53:20;;;;;;;13.43;7.03;;;0.60;99.90;;;-1.07;94.19;103395.13;4986704;28;20038;-75
2023/02/06 00:55:46;;;;;;;14.07;6.47;;;0.60;99.90;;;-1.05;94.03;103402.13;4984502;28;20876;-75
2023/02/06 00:58:12;;;;;;;15.63;6.93;;;0.70;99.90;;;-1.05;94.35;103401.25;4982199;28;20033;-75
2023/02/06 01:00:37;;;;;;;16.40;7.47;;;0.60;99.90;;;-1.04;94.60;103391.00;4964536;28;20042;-75
2023/02/06 01:03:06;;;;;;;23.55;8.02;;;0.70;99.90;;;-1.00;94.21;103389.41;4992865;28;20582;-75
2023/02/06 01:05:31;;;;;;;16.35;7.78;;;0.70;99.90;;;-1.01;94.93;103391.94;4979979;28;20561;-75
2023/02/06 01:07:57;;;;;;;17.30;8.90;;;0.70;99.90;;;-1.04;94.77;103398.75;4983285;28;20133;-75
2023/02/06 01:10:23;;;;;;;17.98;8.45;;;0.70;99.90;;;-1.11;95.14;103393.22;4978450;28;20076;-75
2023/02/06 01:12:49;;;;;;;19.30;8.85;;;0.60;99.90;;;-1.13;95.27;103392.28;4998599;28;20120;-75
2023/02/06 01:15:14;;;;;;;21.25;8.35;;;0.60;99.90;;;-1.15;95.49;103384.44;4979307;28;20041;-75
2023/02/06 01:17:41;;;;;;;18.35;8.27;;;0.60;99.90;;;-1.16;96.18;103387.84;4980984;28;20657;-75
2023/02/06 01:20:12;;;;;;;16.63;8.65;;;0.60;99.90;;;-1.13;96.50;103387.09;5000300;28;20050;-75
2023/02/06 01:22:38;;;;;;;24.65;10.00;;;0.60;99.90;;;-1.17;96.42;103388.66;4980139;28;20063;-75
2023/02/06 01:25:05;;;;;;;17.77;8.70;;;0.60;99.90;;;-1.12;97.10;103376.84;4986728;28;20507;-75
2023/02/06 01:27:31;;;;;;;17.75;9.60;;;0.60;99.90;;;-1.11;96.76;103373.41;4988726;28;20630;-75
2023/02/06 01:29:57;;;;;;;18.00;8.60;;;0.60;99.90;;;-1.12;96.99;103366.50;4979846;28;20088;-75
2023/02/06 01:32:25;;;;;;;23.70;10.23;;;0.60;99.90;;;-1.10;97.16;103363.94;4972505;28;20441;-75
2023/02/06 01:34:51;;;;;;;30.38;9.40;;;0.60;99.90;;;-1.12;97.22;103357.84;4975051;28;20038;-75
2023/02/06 01:37:17;;;;;;;22.40;10.40;;;0.60;99.90;;;-1.12;97.61;103358.72;4960141;28;20054;-75
2023/02/06 01:39:43;;;;;;;24.73;9.48;;;0.60;99.90;;;-1.10;97.55;103359.69;4988221;28;20569;-75
2023/02/06 01:42:12;;;;;;;20.58;10.43;;;0.70;99.90;;;-1.09;98.14;103350.22;4977666;28;20422;-75
2023/02/06 01:44:38;;;;;;;19.98;10.50;;;0.70;99.90;;;-1.09;97.72;103345.03;4986499;28;20042;-75
2023/02/06 01:47:08;;;;;;;18.50;11.07;;;0.70;99.90;;;-1.05;98.46;103350.41;4962370;28;20120;-76
2023/02/06 01:49:44;;;;;;;19.38;9.63;;;0.70;99.90;;;-1.04;98.64;103344.44;4978346;28;20499;-75
2023/02/06 01:52:19;;;;;;;22.08;10.25;;;0.70;99.90;;;-1.00;98.22;103347.16;4989195;28;20062;-75
2023/02/06 01:54:51;;;;;;;20.80;11.05;;;0.70;99.90;;;-1.02;98.17;103341.03;4976278;28;20760;-75
2023/02/06 01:57:19;;;;;;;26.10;10.93;;;0.70;99.90;;;-0.99;98.45;103346.31;4961524;28;20500;-75
2023/02/06 01:59:55;;;;;;;26.52;11.40;;;0.70;99.90;;;-1.00;98.33;103349.72;4960900;28;20042;-75
2023/02/06 02:02:24;;;;;;;25.27;11.13;;;0.80;99.90;;;-0.99;98.90;103348.91;4986326;28;20034;-75
2023/02/06 02:04:50;;;;;;;23.38;11.90;;;0.70;99.90;;;-0.98;98.69;103348.09;4973376;28;20033;-75
2023/02/06 02:07:31;;;;;;;30.17;11.52;;;0.80;99.90;;;-0.96;98.20;103343.88;4986393;28;20752;-75
2023/02/06 02:09:57;;;;;;;23.67;11.25;;;0.80;99.90;;;-0.95;98.79;103346.53;4979777;28;20030;-75
2023/02/06 02:12:23;;;;;;;24.95;12.02;;;0.80;99.90;;;-0.90;98.79;103357.06;4963041;28;20403;-75
2023/02/06 02:14:51;;;;;;;21.00;11.95;;;0.80;99.90;;;-0.89;98.95;103351.94;4963007;28;20033;-74
2023/02/06 02:17:32;;;;;;;22.85;12.00;;;0.80;99.90;;;-0.88;98.56;103350.28;4973659;28;20046;-75
2023/02/06 02:20:39;;;;;;;25.17;11.63;;;0.90;99.90;;;-0.85;98.46;103348.69;4997915;28;20461;-75
2023/02/06 02:23:19;;;;;;;36.40;13.38;;;0.80;99.90;;;-0.80;99.29;103359.22;4940585;28;20050;-75
2023/02/06 02:26:04;;;;;;;30.58;13.18;;;0.90;99.90;;;-0.80;99.05;103356.63;4974056;28;20522;-75
2023/02/06 02:29:07;;;;;;;33.40;13.68;;;0.90;99.90;;;-0.78;98.87;103352.41;4980328;28;20043;-75
2023/02/06 02:32:33;;;;;;;35.47;15.05;;;0.90;99.90;;;-0.75;98.75;103346.50;4985741;28;20066;-75
2023/02/06 02:35:28;;;;;;;34.63;14.13;;;0.90;99.90;;;-0.73;99.01;103352.63;4968349;28;20048;-75
2023/02/06 02:38:11;;;;;;;32.90;15.73;;;0.90;99.90;;;-0.70;99.27;103369.13;4988040;28;20042;-75
2023/02/06 02:41:15;;;;;;;40.67;14.95;;;1.00;99.90;;;-0.67;99.00;103364.13;5006910;28;21193;-75
2023/02/06 02:43:52;;;;;;;40.28;15.85;;;1.00;99.90;;;-0.63;99.13;103360.84;4967125;28;20479;-75
2023/02/06 02:46:39;;;;;;;37.63;15.73;;;1.00;99.90;;;-0.58;98.82;103365.28;4991207;28;20478;-75
2023/02/06 02:49:13;;;;;;;44.22;16.38;;;1.00;99.90;;;-0.55;98.86;103355.09;4975886;28;20030;-74
2023/02/06 02:51:40;;;;;;;45.72;17.13;;;1.10;99.90;;;-0.52;98.61;103356.09;4983278;28;20035;-75
2023/02/06 02:54:06;;;;;;;52.83;17.75;;;1.10;99.90;;;-0.50;99.10;103364.78;4989432;28;20089;-75
2023/02/06 02:56:33;;;;;;;39.70;16.42;;;1.10;99.90;;;-0.47;99.09;103367.53;4990111;28;20193;-76
2023/02/06 02:59:22;;;;;;;53.90;18.10;;;1.10;99.90;;;-0.59;99.71;103359.25;4988985;28;20096;-76
2023/02/06 03:02:10;;;;;;;48.97;17.60;;;1.10;99.90;;;-0.54;100.00;103352.56;4982725;28;20498;-75
2023/02/06 03:04:55;;;;;;;44.33;16.80;;;1.10;99.90;;;-0.57;100.00;103347.25;4963042;28;20050;-75
2023/02/06 03:07:46;;;;;;;60.55;18.77;;;1.10;99.90;;;-0.52;100.00;103345.75;4989143;28;20042;-75
2023/02/06 03:10:45;;;;;;;46.42;17.80;;;1.10;99.90;;;-0.53;100.00;103341.38;4974384;28;20034;-75
2023/02/06 03:13:48;;;;;;;52.25;19.08;;;1.10;99.90;;;-0.53;100.00;103340.50;4985241;28;20033;-76
2023/02/06 03:16:24;;;;;;;57.72;18.67;;;1.10;99.90;;;-0.54;100.00;103338.72;4997525;28;20049;-75
2023/02/06 03:19:39;;;;;;;60.00;19.27;;;1.10;99.90;;;-0.60;100.00;103341.97;4973781;28;20038;-76
2023/02/06 03:22:05;;;;;;;66.60;20.42;;;1.10;99.90;;;-0.60;100.00;103349.72;4967414;28;20037;-75
2023/02/06 03:24:37;;;;;;;75.03;21.13;;;1.10;99.90;;;-0.62;100.00;103344.47;4976642;28;20034;-75
2023/02/06 03:27:12;;;;;;;62.38;20.10;;;1.10;99.90;;;-0.53;100.00;103348.28;4983215;28;20634;-75
2023/02/06 03:29:40;;;;;;;61.47;20.38;;;1.10;99.90;;;-0.70;100.00;103342.38;4965646;28;20029;-75
2023/02/06 03:32:23;;;;;;;71.30;20.65;;;1.10;99.90;;;-0.73;100.00;103340.56;4984620;28;21159;-75
2023/02/06 03:35:11;;;;;;;58.47;20.00;;;1.10;99.90;;;-0.68;100.00;103344.22;4970691;28;20033;-75
2023/02/06 03:37:37;;;;;;;68.22;18.90;;;1.00;99.90;;;-0.87;100.00;103334.78;4989592;28;20033;-76
2023/02/06 03:40:06;;;;;;;52.10;18.75;;;0.90;99.90;;;-0.93;100.00;103331.06;4944895;28;20522;-76
2023/02/06 03:42:36;;;;;;;63.30;19.25;;;0.90;99.90;;;-0.78;100.00;103336.00;4966785;28;20448;-75
2023/02/06 03:45:40;;;;;;;52.83;19.80;;;0.90;99.90;;;-0.75;100.00;103326.69;4972605;28;20109;-76
2023/02/06 03:48:14;;;;;;;86.50;21.50;;;1.00;99.90;;;-0.72;100.00;103331.97;4975859;28;20031;-75
2023/02/06 03:50:43;;;;;;;82.47;21.00;;;1.00;99.90;;;-0.69;100.00;103339.88;4970386;28;20038;-76
2023/02/06 03:53:11;;;;;;;90.78;22.75;;;1.00;99.90;;;-0.65;100.00;103338.28;4960937;28;20026;-75
2023/02/06 03:55:40;;;;;;;99.78;24.05;;;1.00;99.90;;;-0.60;100.00;103333.28;4962499;28;20662;-76
2023/02/06 03:58:10;;;;;;;92.22;22.02;;;1.10;99.90;;;-0.59;100.00;103338.53;4989620;28;20083;-76
2023/02/06 04:00:39;;;;;;;93.88;22.98;;;1.10;99.90;;;-0.58;100.00;103339.41;4987319;28;20046;-75
2023/02/06 04:03:07;;;;;;;113.28;24.30;;;1.10;99.90;;;-0.62;100.00;103331.53;4959166;28;20034;-75
2023/02/06 04:05:33;;;;;;;86.93;22.73;;;1.10;99.90;;;-0.67;100.00;103345.09;4959070;28;20747;-75
2023/02/06 04:07:59;;;;;;;103.30;22.90;;;1.00;99.90;;;-0.69;100.00;103341.56;4972821;28;20046;-75
2023/02/06 04:10:24;;;;;;;88.72;23.48;;;1.10;99.90;;;-0.63;100.00;103339.22;4982032;28;20404;-75
2023/02/06 04:12:50;;;;;;;97.32;24.08;;;1.00;99.90;;;-0.61;100.00;103337.59;4962834;28;20038;-75
2023/02/06 04:15:16;;;;;;;127.25;26.30;;;1.10;99.90;;;-0.68;100.00;103340.75;4967450;28;20046;-76
2023/02/06 04:17:42;;;;;;;113.22;24.90;;;1.10;99.90;;;-0.62;100.00;103336.72;4957846;28;20045;-76
2023/02/06 04:20:09;;;;;;;117.55;25.75;;;1.10;99.90;;;-0.53;100.00;103337.91;4990386;28;20041;-75
2023/02/06 04:22:37;;;;;;;83.72;23.48;;;1.10;99.90;;;-0.49;100.00;103340.69;4972319;28;20030;-75
2023/02/06 04:25:03;;;;;;;123.50;27.80;;;1.20;99.90;;;-0.44;100.00;103344.34;4987113;28;20125;-76
2023/02/06 04:27:29;;;;;;;133.45;26.33;;;1.20;99.90;;;-0.40;100.00;103344.47;4956938;28;20042;-76
2023/02/06 04:29:54;;;;;;;128.75;26.38;;;1.20;99.90;;;-0.48;100.00;103339.84;4981043;28;20041;-75
2023/02/06 04:32:20;;;;;;;188.65;29.77;;;1.20;99.90;;;-0.58;100.00;103345.50;4979803;28;20034;-76
2023/02/06 04:34:46;;;;;;;110.80;25.33;;;1.20;99.90;;;-0.54;100.00;103352.56;4986177;28;20033;-76
2023/02/06 04:37:12;;;;;;;173.48;27.20;;;1.20;99.90;;;-0.52;100.00;103347.44;4982086;28;20105;-76
2023/02/06 04:39:38;;;;;;;230.52;32.45;;;1.20;99.90;;;-0.52;100.00;103353.53;4981964;28;20103;-76
2023/02/06 04:42:05;;;;;;;165.82;27.17;;;1.10;99.90;;;-0.58;100.00;103358.44;4979978;28;20108;-75
2023/02/06 04:44:32;;;;;;;244.90;32.83;;;1.10;99.90;;;-0.60;100.00;103359.16;4983258;28;20047;-76
2023/02/06 04:46:59;;;;;;;321.67;35.67;;;1.10;99.90;;;-0.65;100.00;103358.97;4974563;28;20037;-76
2023/02/06 04:49:25;;;;;;;190.55;28.27;;;1.10;99.90;;;-0.69;100.00;103354.50;4986598;28;20049;-75
2023/02/06 04:51:51;;;;;;;125.78;26.25;;;1.10;99.90;;;-0.62;100.00;103352.25;4977701;28;20103;-76
2023/02/06 04:54:17;;;;;;;288.25;33.03;;;1.10;99.90;;;-0.57;100.00;103367.06;4984919;28;20417;-75
2023/02/06 04:56:45;;;;;;;245.00;31.67;;;1.10;99.90;;;-0.52;100.00;103370.72;4952715;28;20578;-75
2023/02/06 04:59:11;;;;;;;326.17;35.38;;;1.10;99.90;;;-0.46;100.00;103376.16;4962170;28;20042;-76
2023/02/06 05:01:36;;;;;;;196.55;32.50;;;1.20;99.90;;;-0.43;100.00;103371.13;4957308;28;20118;-75
2023/02/06 05:04:02;;;;;;;262.33;33.10;;;1.20;99.90;;;-0.42;100.00;103380.66;4964858;28;20519;-76
2023/02/06 05:06:29;;;;;;;202.60;29.88;;;1.20;99.90;;;-0.45;100.00;103383.13;4981349;28;20073;-76
2023/02/06 05:08:59;;;;;;;196.48;30.67;;;1.20;99.90;;;-0.42;100.00;103389.28;4941024;28;20033;-76
2023/02/06 05:11:25;;;;;;;149.15;26.95;;;1.20;99.90;;;-0.48;100.00;103391.63;4983189;28;20675;-75
2023/02/06 05:13:52;;;;;;;132.00;26.25;;;1.20;99.90;;;-0.44;100.00;103382.28;4980045;28;20033;-76
2023/02/06 05:16:18;;;;;;;116.07;25.85;;;1.20;99.90;;;-0.53;100.00;103385.38;4973408;28;20041;-76
2023/02/06 05:18:44;;;;;;;126.63;24.85;;;1.20;99.90;;;-0.52;100.00;103383.66;4971538;28;20469;-76
2023/02/06 05:21:12;;;;;;;121.60;24.83;;;1.30;99.90;;;-0.50;100.00;103394.97;4978658;28;20514;-76
2023/02/06 05:23:40;;;;;;;117.95;25.48;;;1.30;99.90;;;-0.46;100.00;103402.06;4964831;28;20094;-75
2023/02/06 05:26:06;;;;;;;115.20;25.23;;;1.30;99.90;;;-0.51;100.00;103401.88;4968751;28;20045;-75
2023/02/06 05:28:35;;;;;;;119.35;25.33;;;1.30;99.90;;;-0.43;100.00;103404.78;4956612;28;20037;-76
2023/02/06 05:31:01;;;;;;;107.72;22.73;;;1.30;99.90;;;-0.42;100.00;103407.41;4989927;28;20033;-76
2023/02/06 05:33:34;;;;;;;103.43;26.15;;;1.30;99.90;;;-0.39;100.00;103406.66;4981225;28;20422;-76
2023/02/06 05:36:06;;;;;;;98.18;25.60;;;1.40;99.90;;;-0.32;100.00;103406.09;4963392;28;20039;-76
2023/02/06 05:38:33;;;;;;;97.70;25.08;;;1.40;99.90;;;-0.32;100.00;103413.00;4971744;28;20406;-76
2023/02/06 05:40:59;;;;;;;86.90;24.63;;;1.40;99.90;;;-0.32;100.00;103413.88;4970095;28;20038;-76
2023/02/06 05:43:25;;;;;;;101.18;25.08;;;1.50;99.90;;;-0.24;100.00;103415.09;4986207;28;20562;-76
2023/02/06 05:45:51;;;;;;;86.53;24.90;;;1.50;99.90;;;-0.18;100.00;103418.72;4968646;28;20037;-76
2023/02/06 05:48:17;;;;;;;92.35;22.77;;;1.50;99.90;;;-0.18;100.00;103416.16;4998764;28;20036;-76
2023/02/06 05:50:43;;;;;;;97.63;25.58;;;1.60;99.90;;;-0.10;100.00;103422.53;4968018;28;20352;-76
2023/02/06 05:53:08;;;;;;;106.45;25.50;;;1.60;99.90;;;-0.04;100.00;103428.84;4978558;28;20536;-76
2023/02/06 05:55:37;;;;;;;88.05;25.40;;;1.70;99.90;;;-0.02;100.00;103427.19;4957509;28;20046;-76
2023/02/06 05:58:05;;;;;;;93.38;25.77;;;1.60;99.90;;;-0.01;100.00;103417.72;4959654;28;20410;-75
2023/02/06 06:00:31;;;;;;;109.10;29.20;;;1.70;99.90;;;0.07;100.00;103415.44;4972468;28;20459;-77
2023/02/06 06:02:57;;;;;;;95.72;26.88;;;1.70;99.90;;;0.09;100.00;103409.50;4968362;28;20041;-75
2023/02/06 06:05:22;;;;;;;90.95;28.77;;;1.70;99.90;;;0.08;100.00;103412.00;4984917;28;20039;-76
2023/02/06 06:07:48;;;;;;;89.93;29.75;;;1.70;99.90;;;0.05;100.00;103412.78;4971225;28;20584;-76
2023/02/06 06:10:17;;;;;;;50.97;18.42;;;1.70;99.90;;;-0.05;100.00;103414.09;4966649;28;20036;-75
2023/02/06 06:12:46;;;;;;;71.63;21.35;;;1.70;99.90;;;-0.07;100.00;103407.97;4983927;28;20034;-75
2023/02/06 06:15:12;;;;;;;79.07;22.77;;;1.70;99.90;;;-0.04;100.00;103422.78;4985870;28;20517;-76
2023/02/06 06:17:38;;;;;;;79.57;21.90;;;1.70;99.90;;;-0.02;100.00;103421.13;4993492;28;20103;-75
2023/02/06 06:20:04;;;;;;;77.55;22.65;;;1.70;99.90;;;0.03;100.00;103424.78;4988793;28;20070;-76
2023/02/06 06:22:30;;;;;;;65.88;22.77;;;1.80;99.90;;;0.07;100.00;103428.41;4986500;28;20087;-75
2023/02/06 06:24:56;;;;;;;75.32;23.45;;;1.80;99.90;;;0.09;100.00;103432.81;4995239;28;20441;-76
2023/02/06 06:27:24;;;;;;;73.93;23.40;;;1.80;99.90;;;0.10;100.00;103436.28;4939985;28;20042;-76
2023/02/06 06:29:50;;;;;;;74.78;23.23;;;1.80;99.90;;;0.04;100.00;103442.09;4943326;28;20045;-76
2023/02/06 06:32:16;;;;;;;72.50;23.83;;;1.80;99.90;;;0.11;100.00;103453.56;4976856;28;20147;-75
2023/02/06 06:34:42;;;;;;;63.95;22.05;;;1.80;99.90;;;0.08;100.00;103449.16;4970017;28;20176;-76
2023/02/06 06:37:08;;;;;;;72.60;21.65;;;1.80;99.90;;;0.03;100.00;103449.81;4981443;28;20499;-76
2023/02/06 06:39:34;;;;;;;56.50;19.88;;;1.80;99.90;;;0.01;100.00;103449.75;4972170;28;20046;-76
2023/02/06 06:42:00;;;;;;;61.33;19.50;;;1.80;99.90;;;-0.01;100.00;103462.63;4976785;28;20077;-75
2023/02/06 06:44:26;;;;;;;75.75;21.25;;;1.80;99.90;;;0.06;100.00;103460.28;4974913;28;20639;-76
2023/02/06 06:46:54;;;;;;;77.85;23.40;;;1.90;99.90;;;0.13;100.00;103460.63;4962288;28;20045;-76
2023/02/06 06:49:20;;;;;;;73.20;21.92;;;1.90;99.90;;;0.13;100.00;103455.44;4963368;28;20056;-75
2023/02/06 06:51:45;;;;;;;70.43;22.98;;;1.90;99.90;;;0.16;100.00;103475.41;4944336;28;20585;-75
2023/02/06 06:54:11;;;;;;;85.05;22.75;;;1.80;99.90;;;0.16;100.00;103463.31;4991819;28;20038;-76
2023/02/06 06:56:37;;;;;;;72.75;23.35;;;1.90;99.90;;;0.12;100.00;103466.59;4974483;28;20066;-76
2023/02/06 06:59:03;;;;;;;70.38;22.92;;;1.80;99.90;;;0.12;100.00;103481.28;4983682;28;20569;-76
2023/02/06 07:01:29;;;;;;;70.18;19.40;;;1.90;99.90;;;0.09;100.00;103479.44;4978755;28;20037;-74
2023/02/06 07:03:56;;;;;;;79.75;24.20;;;1.90;99.90;;;0.19;100.00;103476.41;4975467;28;20034;-75
2023/02/06 07:06:22;;;;;;;64.97;22.42;;;1.90;99.90;;;0.26;100.00;103482.72;4984052;28;20056;-75
2023/02/06 07:08:48;;;;;;;71.78;21.67;;;2.00;99.90;;;0.31;100.00;103493.28;4975062;28;20518;-75
2023/02/06 07:11:15;;;;;;;58.83;17.08;;;2.00;99.90;;;0.23;100.00;103495.53;4990616;28;20118;-76
2023/02/06 07:13:41;;;;;;;71.07;21.48;;;2.00;99.90;;;0.27;100.00;103501.75;4990963;28;20046;-75
2023/02/06 07:16:08;;;;;;;60.97;19.77;;;2.00;99.90;;;0.22;100.00;103506.75;4980390;28;20030;-75
2023/02/06 07:18:34;;;;;;;53.92;19.67;;;2.00;99.90;;;0.24;100.00;103506.78;4988847;28;20029;-75
2023/02/06 07:21:00;;;;;;;78.75;23.67;;;2.00;99.90;;;0.36;100.00;103513.34;4990036;28;20042;-75
2023/02/06 07:23:26;;;;;;;74.40;23.30;;;2.10;99.90;;;0.45;100.00;103502.47;4970833;28;20524;-75
2023/02/06 07:25:52;;;;;;;74.03;23.60;;;2.10;99.90;;;0.51;100.00;103509.59;4968039;28;20041;-75
2023/02/06 07:28:18;;;;;;;76.80;23.63;;;2.10;99.90;;;0.57;100.00;103505.56;4989817;28;20399;-75
2023/02/06 07:30:44;;;;;;;66.97;22.65;;;2.20;99.90;;;0.54;100.00;103502.84;4973758;28;20027;-75
2023/02/06 07:33:10;;;;;;;80.68;24.13;;;2.20;99.90;;;0.62;100.00;103505.72;4958317;28;20124;-75
2023/02/06 07:35:35;;;;;;;72.40;23.25;;;2.20;99.90;;;0.61;100.00;103502.25;4989403;28;20030;-75
2023/02/06 07:38:01;;;;;;;67.63;21.83;;;2.20;99.90;;;0.64;100.00;103509.25;4980461;28;20160;-76
2023/02/06 07:40:27;;;;;;;69.70;21.65;;;2.20;99.90;;;0.53;100.00;103498.47;4988000;28;20129;-75
2023/02/06 07:42:53;;;;;;;75.10;21.15;;;2.20;99.90;;;0.49;100.00;103506.06;4972096;28;20529;-75
2023/02/06 07:45:18;;;;;;;64.85;20.48;;;2.20;99.90;;;0.44;100.00;103515.38;4975633;28;20037;-75
2023/02/06 07:47:44;;;;;;;69.97;21.98;;;2.20;99.90;;;0.54;100.00;103508.03;4970495;28;20036;-74
2023/02/06 07:50:10;;;;;;;72.43;23.00;;;2.20;99.90;;;0.63;100.00;103504.91;4988605;28;20034;-76
2023/02/06 07:52:36;;;;;;;68.53;22.33;;;2.30;99.90;;;0.75;100.00;103509.69;4989845;28;20390;-75
2023/02/06 07:55:03;;;;;;;71.80;21.98;;;2.30;99.90;;;0.70;100.00;103519.00;4981116;28;20042;-74
2023/02/06 07:57:29;;;;;;;73.13;22.52;;;2.30;99.90;;;0.72;100.00;103515.63;4959258;28;20107;-75
2023/02/06 07:59:57;;;;;;;72.47;23.27;;;2.40;99.90;;;0.81;100.00;103510.81;4983165;28;20058;-74
2023/02/06 08:02:23;;;;;;;71.57;20.73;;;2.40;99.90;;;0.87;100.00;103520.53;4974372;28;20034;-75
2023/02/06 08:04:49;;;;;;;65.70;21.33;;;2.40;99.90;;;0.87;100.00;103527.44;4989205;28;20037;-74
2023/02/06 08:07:16;;;;;;;54.75;20.40;;;2.50;99.90;;;0.91;100.00;103540.59;4992763;28;20030;-74
2023/02/06 08:09:42;;;;;;;56.40;19.83;;;2.50;99.90;;;0.84;100.00;103546.34;4989200;28;20040;-74
2023/02/06 08:12:08;;;;;;;65.88;20.83;;;2.50;99.90;;;0.93;100.00;103546.72;4988421;28;20084;-74
2023/02/06 08:14:36;;;;;;;65.95;21.38;;;2.60;99.90;;;1.04;100.00;103539.34;4990591;28;20069;-74
2023/02/06 08:17:02;;;;;;;62.55;20.90;;;2.60;99.90;;;1.08;100.00;103540.31;4997477;28;20034;-75
2023/02/06 08:19:28;;;;;;;67.28;21.05;;;2.60;99.90;;;1.07;100.00;103543.75;4990536;28;20450;-73
2023/02/06 08:21:54;;;;;;;66.20;21.95;;;2.60;99.90;;;1.10;100.00;103541.28;4988427;28;20050;-74
2023/02/06 08:24:19;;;;;;;65.97;21.35;;;2.60;99.90;;;1.12;100.00;103542.22;4972819;28;20167;-74
2023/02/06 08:26:45;;;;;;;53.70;20.40;;;2.70;99.90;;;1.07;100.00;103548.94;4987873;28;20487;-74
2023/02/06 08:29:13;;;;;;;59.65;19.40;;;2.60;99.90;;;1.10;100.00;103542.19;4972455;28;20041;-74
2023/02/06 08:31:41;;;;;;;51.35;19.98;;;2.70;99.90;;;1.20;100.00;103533.00;4988972;28;20067;-74
2023/02/06 08:34:11;;;;;;;55.20;18.98;;;2.70;99.90;;;1.24;100.00;103537.50;5005771;28;20050;-73
2023/02/06 08:36:37;;;;;;;52.47;18.38;;;2.70;99.90;;;1.25;100.00;103540.97;4988327;28;20061;-73
2023/02/06 08:39:06;;;;;;;43.67;18.00;;;2.80;99.90;;;1.26;100.00;103537.56;4962731;28;20041;-74
2023/02/06 08:41:42;;;;;;;52.75;19.02;;;2.80;99.90;;;1.32;100.00;103541.25;4987710;28;20029;-74
2023/02/06 08:44:14;;;;;;;51.45;19.70;;;2.80;99.90;;;1.34;100.00;103542.22;4984724;28;20441;-74
2023/02/06 08:46:43;;;;;;;42.67;15.20;;;2.80;99.90;;;1.23;100.00;103536.63;4956232;28;20431;-74
2023/02/06 08:49:18;;;;;;;47.10;17.38;;;2.80;99.90;;;1.21;100.00;103543.47;4989389;28;20042;-74
2023/02/06 08:51:45;;;;;;;53.22;18.70;;;2.80;99.90;;;1.15;100.00;103553.59;4988257;28;20529;-74
2023/02/06 08:54:15;;;;;;;45.13;18.75;;;2.80;99.90;;;1.32;100.00;103558.53;4988916;28;20061;-74
2023/02/06 08:56:41;;;;;;;58.67;19.42;;;2.90;99.90;;;1.39;100.00;103556.22;4978428;28;20026;-74
2023/02/06 08:59:07;;;;;;;52.90;18.60;;;3.00;99.90;;;1.49;100.00;103556.56;4989477;28;20073;-73
2023/02/06 09:01:35;;;;;;;44.30;18.92;;;3.00;99.90;;;1.52;100.00;103557.56;4986309;28;20522;-74
2023/02/06 09:04:09;;;;;;;46.15;18.55;;;3.00;99.90;;;1.55;100.00;103568.03;4966402;28;20042;-74
2023/02/06 09:06:39;;;;;;;47.03;17.88;;;3.10;99.90;;;1.53;100.00;103559.31;4990059;28;20038;-74
2023/02/06 09:09:07;;;;;;;38.15;18.08;;;3.10;99.90;;;1.68;100.00;103571.97;4963401;28;20058;-74
2023/02/06 09:11:34;;;;;;;42.90;18.88;;;3.20;99.90;;;1.80;100.00;103584.53;4989414;28;20061;-75
2023/02/06 09:14:03;;;;;;;40.42;16.95;;;3.30;99.90;;;1.83;100.00;103582.03;4982408;28;20038;-75
2023/02/06 09:16:33;;;;;;;42.10;17.70;;;3.30;99.90;;;1.68;100.00;103579.75;4981586;28;20954;-74
2023/02/06 09:19:01;;;;;;;36.42;15.93;;;3.30;99.90;;;1.69;100.00;103584.16;4969015;28;20115;-75
2023/02/06 09:21:33;;;;;;;38.35;16.40;;;3.30;99.90;;;1.88;100.00;103587.38;4988006;28;20035;-75
2023/02/06 09:24:04;;;;;;;29.00;14.75;;;3.40;99.90;;;1.90;100.00;103585.72;4992649;28;20080;-75
2023/02/06 09:26:40;;;;;;;33.20;14.80;;;3.40;99.90;;;1.89;100.00;103586.56;4990342;28;21209;-75
2023/02/06 09:29:09;;;;;;;34.03;14.52;;;3.40;99.90;;;1.97;100.00;103598.13;4963348;28;20806;-75
2023/02/06 09:31:38;;;;;;;30.13;15.05;;;3.50;99.90;;;1.99;100.00;103599.06;4969738;28;20785;-75
2023/02/06 09:34:06;;;;;;;29.35;13.45;;;3.50;99.90;;;2.03;100.00;103601.81;4954242;28;20038;-75
2023/02/06 09:36:33;;;;;;;26.27;13.68;;;3.60;99.90;;;2.15;100.00;103605.66;4976060;28;20124;-75
2023/02/06 09:39:03;;;;;;;34.33;13.68;;;3.60;99.90;;;2.13;100.00;103617.72;4969174;28;20042;-75
2023/02/06 09:41:51;;;;;;;24.27;12.90;;;3.70;99.90;;;2.15;100.00;103627.34;4980099;28;20088;-75
2023/02/06 09:44:33;;;;;;;26.10;12.98;;;3.70;99.90;;;2.26;100.00;103620.78;4980145;28;20041;-76
2023/02/06 09:47:29;;;;;;;23.85;12.32;;;3.80;99.90;;;2.39;100.00;103623.81;5006745;28;20364;-76
2023/02/06 09:50:07;;;;;;;27.63;11.30;;;3.90;99.90;;;2.45;100.00;103616.22;4988224;28;20038;-76
2023/02/06 09:53:24;;;;;;;23.60;10.27;;;3.90;99.90;;;2.41;100.00;103615.22;5006044;28;20030;-74
2023/02/06 09:56:43;;;;;;;17.15;8.93;;;3.90;99.90;;;2.49;100.00;103615.50;4992490;28;20084;-76
2023/02/06 09:59:47;;;;;;;21.85;9.45;;;4.00;99.90;;;2.60;100.00;103619.31;4996508;28;20769;-76
2023/02/06 10:02:22;;;;;;;15.23;8.05;;;4.00;99.90;;;2.52;100.00;103615.59;4967318;28;20034;-75
2023/02/06 10:05:16;;;;;;;14.98;7.32;;;4.10;99.90;;;2.66;100.00;103603.91;4978497;28;20077;-76
2023/02/06 10:07:59;;;;;;;13.23;6.53;;;4.20;99.90;;;2.78;99.14;103605.13;4982405;28;20037;-75
2023/02/06 10:11:08;;;;;;;11.30;5.38;;;4.20;99.90;;;2.46;97.36;103595.47;4993496;28;20143;-76
2023/02/06 10:13:52;;;;;;;8.75;4.38;;;4.10;99.90;;;2.36;96.58;103603.78;4985120;28;20544;-76
2023/02/06 10:17:07;;;;;;;15.55;5.85;;;4.10;99.90;;;2.59;96.57;103607.16;4972880;28;20045;-76
2023/02/06 10:19:55;;;;;;;12.32;4.25;;;4.10;99.90;;;2.56;96.17;103607.03;4993696;28;20050;-75
2023/02/06 10:22:38;;;;;;;9.38;3.22;;;4.10;99.90;;;2.46;94.80;103604.97;4974291;28;20491;-76